sensor_id;sensor_type;location;lat;lon;timestamp;temperature;humidity
55036;DHT22;40936;53.008;6.556;2023-06-26T00:00:29;22.90;99.90
55036;DHT22;40936;53.008;6.556;2023-06-26T00:02:55;22.90;99.90
55036;DHT22;40936;53.008;6.556;2023-06-26T00:05:21;22.90;99.90
55036;DHT22;40936;53.008;6.556;2023-06-26T00:07:47;22.80;99.90
55036;DHT22;40936;53.008;6.556;2023-06-26T00:10:12;22.80;99.90
55036;DHT22;40936;53.008;6.556;2023-06-26T00:12:38;22.80;99.90
55036;DHT22;40936;53.008;6.556;2023-06-26T00:15:04;22.90;99.90
55036;DHT22;40936;53.008;6.556;2023-06-26T00:17:30;23.00;99.90
55036;DHT22;40936;53.008;6.556;2023-06-26T00:19:55;23.00;99.90
55036;DHT22;40936;53.008;6.556;2023-06-26T00:22:21;23.00;99.90
55036;DHT22;40936;53.008;6.556;2023-06-26T00:24:47;23.00;99.90
55036;DHT22;40936;53.008;6.556;2023-06-26T00:27:13;22.90;99.90
55036;DHT22;40936;53.008;6.556;2023-06-26T00:29:38;22.90;99.90
55036;DHT22;40936;53.008;6.556;2023-06-26T00:32:05;22.80;99.90
55036;DHT22;40936;53.008;6.556;2023-06-26T00:34:31;22.90;99.90
55036;DHT22;40936;53.008;6.556;2023-06-26T00:36:57;22.80;99.90
55036;DHT22;40936;53.008;6.556;2023-06-26T00:39:23;22.80;99.90
55036;DHT22;40936;53.008;6.556;2023-06-26T00:41:51;22.80;99.90
55036;DHT22;40936;53.008;6.556;2023-06-26T00:44:19;22.70;99.90
55036;DHT22;40936;53.008;6.556;2023-06-26T00:46:45;22.60;99.90
55036;DHT22;40936;53.008;6.556;2023-06-26T00:49:11;22.70;99.90
55036;DHT22;40936;53.008;6.556;2023-06-26T00:51:38;22.60;99.90
55036;DHT22;40936;53.008;6.556;2023-06-26T00:54:04;22.60;99.90
55036;DHT22;40936;53.008;6.556;2023-06-26T00:56:31;22.60;99.90
55036;DHT22;40936;53.008;6.556;2023-06-26T00:58:57;22.50;99.90
55036;DHT22;40936;53.008;6.556;2023-06-26T01:01:23;22.50;99.90
55036;DHT22;40936;53.008;6.556;2023-06-26T01:03:51;22.50;99.90
55036;DHT22;40936;53.008;6.556;2023-06-26T01:06:20;22.40;99.90
55036;DHT22;40936;53.008;6.556;2023-06-26T01:08:46;22.40;99.90
55036;DHT22;40936;53.008;6.556;2023-06-26T01:11:13;22.40;99.90
55036;DHT22;40936;53.008;6.556;2023-06-26T01:13:41;22.40;99.90
55036;DHT22;40936;53.008;6.556;2023-06-26T01:16:08;22.30;99.90
55036;DHT22;40936;53.008;6.556;2023-06-26T01:18:35;22.30;99.90
55036;DHT22;40936;53.008;6.556;2023-06-26T01:21:02;22.30;99.90
55036;DHT22;40936;53.008;6.556;2023-06-26T01:26:47;22.20;99.90
55036;DHT22;40936;53.008;6.556;2023-06-26T01:29:15;22.20;99.90
55036;DHT22;40936;53.008;6.556;2023-06-26T01:31:42;22.10;99.90
55036;DHT22;40936;53.008;6.556;2023-06-26T01:34:09;22.10;99.90
55036;DHT22;40936;53.008;6.556;2023-06-26T01:36:35;22.10;99.90
55036;DHT22;40936;53.008;6.556;2023-06-26T01:39:02;22.00;99.90
55036;DHT22;40936;53.008;6.556;2023-06-26T01:41:28;22.00;99.90
55036;DHT22;40936;53.008;6.556;2023-06-26T01:49:28;22.00;99.90
55036;DHT22;40936;53.008;6.556;2023-06-26T01:54:37;22.00;99.90
55036;DHT22;40936;53.008;6.556;2023-06-26T01:57:05;21.90;99.90
55036;DHT22;40936;53.008;6.556;2023-06-26T01:59:33;21.50;99.90
55036;DHT22;40936;53.008;6.556;2023-06-26T02:02:01;21.80;99.90
55036;DHT22;40936;53.008;6.556;2023-06-26T02:04:29;21.80;99.90
55036;DHT22;40936;53.008;6.556;2023-06-26T02:06:55;21.80;99.90
55036;DHT22;40936;53.008;6.556;2023-06-26T02:09:20;21.80;99.90
55036;DHT22;40936;53.008;6.556;2023-06-26T02:11:46;21.70;99.90
55036;DHT22;40936;53.008;6.556;2023-06-26T02:14:12;21.70;99.90
55036;DHT22;40936;53.008;6.556;2023-06-26T02:16:37;21.60;99.90
55036;DHT22;40936;53.008;6.556;2023-06-26T02:19:03;21.60;99.90
55036;DHT22;40936;53.008;6.556;2023-06-26T02:21:29;21.60;99.90
55036;DHT22;40936;53.008;6.556;2023-06-26T02:23:54;21.60;99.90
55036;DHT22;40936;53.008;6.556;2023-06-26T02:26:20;21.50;99.90
55036;DHT22;40936;53.008;6.556;2023-06-26T02:28:46;21.50;99.90
55036;DHT22;40936;53.008;6.556;2023-06-26T02:31:12;21.50;99.90
55036;DHT22;40936;53.008;6.556;2023-06-26T02:33:37;21.50;99.90
55036;DHT22;40936;53.008;6.556;2023-06-26T02:36:04;21.50;99.90
55036;DHT22;40936;53.008;6.556;2023-06-26T02:38:32;21.50;99.90
55036;DHT22;40936;53.008;6.556;2023-06-26T02:40:58;21.50;99.90
55036;DHT22;40936;53.008;6.556;2023-06-26T02:43:24;21.90;99.90
55036;DHT22;40936;53.008;6.556;2023-06-26T02:45:49;21.50;99.90
55036;DHT22;40936;53.008;6.556;2023-06-26T02:48:15;21.50;99.90
55036;DHT22;40936;53.008;6.556;2023-06-26T02:50:41;21.50;99.90
55036;DHT22;40936;53.008;6.556;2023-06-26T02:53:06;21.50;99.90
55036;DHT22;40936;53.008;6.556;2023-06-26T02:55:34;21.50;99.90
55036;DHT22;40936;53.008;6.556;2023-06-26T02:57:59;21.50;99.90
55036;DHT22;40936;53.008;6.556;2023-06-26T03:00:25;21.50;99.90
55036;DHT22;40936;53.008;6.556;2023-06-26T03:02:51;21.40;99.90
55036;DHT22;40936;53.008;6.556;2023-06-26T03:05:16;21.40;99.90
55036;DHT22;40936;53.008;6.556;2023-06-26T03:07:42;21.30;99.90
55036;DHT22;40936;53.008;6.556;2023-06-26T03:10:08;21.30;99.90
55036;DHT22;40936;53.008;6.556;2023-06-26T03:12:34;21.20;99.90
55036;DHT22;40936;53.008;6.556;2023-06-26T03:14:59;21.30;99.90
55036;DHT22;40936;53.008;6.556;2023-06-26T03:17:25;21.30;99.90
55036;DHT22;40936;53.008;6.556;2023-06-26T03:19:51;21.30;99.90
55036;DHT22;40936;53.008;6.556;2023-06-26T03:22:16;21.30;99.90
55036;DHT22;40936;53.008;6.556;2023-06-26T03:24:44;21.30;99.90
55036;DHT22;40936;53.008;6.556;2023-06-26T03:27:09;21.30;99.90
55036;DHT22;40936;53.008;6.556;2023-06-26T03:29:35;21.30;99.90
55036;DHT22;40936;53.008;6.556;2023-06-26T03:32:01;21.30;99.90
55036;DHT22;40936;53.008;6.556;2023-06-26T03:34:26;21.20;99.90
55036;DHT22;40936;53.008;6.556;2023-06-26T03:36:52;21.20;99.90
55036;DHT22;40936;53.008;6.556;2023-06-26T03:39:18;21.20;99.90
55036;DHT22;40936;53.008;6.556;2023-06-26T03:41:43;21.20;99.90
55036;DHT22;40936;53.008;6.556;2023-06-26T03:44:09;21.30;99.90
55036;DHT22;40936;53.008;6.556;2023-06-26T03:46:35;21.30;99.90
55036;DHT22;40936;53.008;6.556;2023-06-26T03:49:00;21.30;99.90
55036;DHT22;40936;53.008;6.556;2023-06-26T03:51:26;21.40;99.90
55036;DHT22;40936;53.008;6.556;2023-06-26T03:53:52;21.30;99.90
55036;DHT22;40936;53.008;6.556;2023-06-26T03:56:17;21.30;99.90
55036;DHT22;40936;53.008;6.556;2023-06-26T03:58:43;21.40;99.90
55036;DHT22;40936;53.008;6.556;2023-06-26T04:01:09;21.40;99.90
55036;DHT22;40936;53.008;6.556;2023-06-26T04:03:34;21.40;99.90
55036;DHT22;40936;53.008;6.556;2023-06-26T04:06:00;21.40;99.90
55036;DHT22;40936;53.008;6.556;2023-06-26T04:08:26;21.40;99.90
55036;DHT22;40936;53.008;6.556;2023-06-26T04:10:52;21.40;99.90
55036;DHT22;40936;53.008;6.556;2023-06-26T04:13:19;21.40;99.90
55036;DHT22;40936;53.008;6.556;2023-06-26T04:15:44;21.40;99.90
55036;DHT22;40936;53.008;6.556;2023-06-26T04:18:10;21.40;99.90
55036;DHT22;40936;53.008;6.556;2023-06-26T04:20:39;21.30;99.90
55036;DHT22;40936;53.008;6.556;2023-06-26T04:23:06;21.30;99.90
55036;DHT22;40936;53.008;6.556;2023-06-26T04:25:32;21.30;99.90
55036;DHT22;40936;53.008;6.556;2023-06-26T04:27:57;21.30;99.90
55036;DHT22;40936;53.008;6.556;2023-06-26T04:30:23;21.30;99.90
55036;DHT22;40936;53.008;6.556;2023-06-26T04:32:49;21.30;99.90
55036;DHT22;40936;53.008;6.556;2023-06-26T04:35:14;21.30;99.90
55036;DHT22;40936;53.008;6.556;2023-06-26T04:37:40;21.40;99.90
55036;DHT22;40936;53.008;6.556;2023-06-26T04:40:06;21.50;99.90
55036;DHT22;40936;53.008;6.556;2023-06-26T04:42:35;21.70;99.90
55036;DHT22;40936;53.008;6.556;2023-06-26T04:45:00;21.80;99.90
55036;DHT22;40936;53.008;6.556;2023-06-26T04:47:28;21.80;99.90
55036;DHT22;40936;53.008;6.556;2023-06-26T04:49:53;21.90;99.90
55036;DHT22;40936;53.008;6.556;2023-06-26T04:52:20;21.90;99.90
55036;DHT22;40936;53.008;6.556;2023-06-26T04:54:46;22.00;99.90
55036;DHT22;40936;53.008;6.556;2023-06-26T04:57:11;22.00;99.90
55036;DHT22;40936;53.008;6.556;2023-06-26T04:59:37;21.90;99.90
55036;DHT22;40936;53.008;6.556;2023-06-26T05:02:03;21.90;99.90
55036;DHT22;40936;53.008;6.556;2023-06-26T05:04:30;21.90;99.90
55036;DHT22;40936;53.008;6.556;2023-06-26T05:06:56;21.90;99.90
55036;DHT22;40936;53.008;6.556;2023-06-26T05:09:21;21.80;99.90
55036;DHT22;40936;53.008;6.556;2023-06-26T05:11:47;21.80;99.90
55036;DHT22;40936;53.008;6.556;2023-06-26T05:14:13;21.80;99.90
55036;DHT22;40936;53.008;6.556;2023-06-26T05:16:39;21.80;99.90
55036;DHT22;40936;53.008;6.556;2023-06-26T05:19:04;21.80;99.90
55036;DHT22;40936;53.008;6.556;2023-06-26T05:21:30;21.80;99.90
55036;DHT22;40936;53.008;6.556;2023-06-26T05:23:57;21.80;99.90
55036;DHT22;40936;53.008;6.556;2023-06-26T05:26:24;21.70;99.90
55036;DHT22;40936;53.008;6.556;2023-06-26T05:28:50;21.80;99.90
55036;DHT22;40936;53.008;6.556;2023-06-26T05:31:16;21.80;99.90
55036;DHT22;40936;53.008;6.556;2023-06-26T05:33:43;21.70;99.90
55036;DHT22;40936;53.008;6.556;2023-06-26T05:36:11;21.70;99.90
55036;DHT22;40936;53.008;6.556;2023-06-26T05:38:38;21.70;99.90
55036;DHT22;40936;53.008;6.556;2023-06-26T05:41:03;21.60;99.90
55036;DHT22;40936;53.008;6.556;2023-06-26T05:43:29;21.50;99.90
55036;DHT22;40936;53.008;6.556;2023-06-26T05:45:56;21.60;99.90
55036;DHT22;40936;53.008;6.556;2023-06-26T05:48:23;21.60;99.90
55036;DHT22;40936;53.008;6.556;2023-06-26T05:50:49;21.60;99.90
55036;DHT22;40936;53.008;6.556;2023-06-26T05:53:15;21.70;99.90
55036;DHT22;40936;53.008;6.556;2023-06-26T05:55:41;21.30;99.90
55036;DHT22;40936;53.008;6.556;2023-06-26T05:58:10;21.70;99.90
55036;DHT22;40936;53.008;6.556;2023-06-26T06:00:38;21.60;99.90
55036;DHT22;40936;53.008;6.556;2023-06-26T06:03:04;21.60;99.90
55036;DHT22;40936;53.008;6.556;2023-06-26T06:05:30;21.60;99.90
55036;DHT22;40936;53.008;6.556;2023-06-26T06:07:56;21.70;99.90
55036;DHT22;40936;53.008;6.556;2023-06-26T06:10:21;21.80;99.90
55036;DHT22;40936;53.008;6.556;2023-06-26T06:12:47;21.90;99.90
55036;DHT22;40936;53.008;6.556;2023-06-26T06:15:13;21.90;99.90
55036;DHT22;40936;53.008;6.556;2023-06-26T06:17:38;21.90;99.90
55036;DHT22;40936;53.008;6.556;2023-06-26T06:20:04;21.80;99.90
55036;DHT22;40936;53.008;6.556;2023-06-26T06:22:32;21.80;99.90
55036;DHT22;40936;53.008;6.556;2023-06-26T06:24:57;21.80;99.90
55036;DHT22;40936;53.008;6.556;2023-06-26T06:27:23;21.70;99.90
55036;DHT22;40936;53.008;6.556;2023-06-26T06:29:49;21.70;99.90
55036;DHT22;40936;53.008;6.556;2023-06-26T06:32:14;21.60;99.90
55036;DHT22;40936;53.008;6.556;2023-06-26T06:34:40;21.70;99.90
55036;DHT22;40936;53.008;6.556;2023-06-26T06:37:06;21.70;99.90
55036;DHT22;40936;53.008;6.556;2023-06-26T06:39:32;21.70;99.90
55036;DHT22;40936;53.008;6.556;2023-06-26T06:41:58;21.70;99.90
55036;DHT22;40936;53.008;6.556;2023-06-26T06:44:23;21.80;99.90
55036;DHT22;40936;53.008;6.556;2023-06-26T06:46:49;21.90;99.90
55036;DHT22;40936;53.008;6.556;2023-06-26T06:49:15;21.90;99.90
55036;DHT22;40936;53.008;6.556;2023-06-26T06:51:40;22.10;99.90
55036;DHT22;40936;53.008;6.556;2023-06-26T06:54:06;22.50;99.90
55036;DHT22;40936;53.008;6.556;2023-06-26T06:56:32;22.80;99.90
55036;DHT22;40936;53.008;6.556;2023-06-26T06:58:57;22.90;99.90
55036;DHT22;40936;53.008;6.556;2023-06-26T07:01:23;22.90;99.90
55036;DHT22;40936;53.008;6.556;2023-06-26T07:03:49;22.80;99.90
55036;DHT22;40936;53.008;6.556;2023-06-26T07:06:15;22.70;99.90
55036;DHT22;40936;53.008;6.556;2023-06-26T07:08:40;22.60;99.90
55036;DHT22;40936;53.008;6.556;2023-06-26T07:11:06;22.90;99.90
55036;DHT22;40936;53.008;6.556;2023-06-26T07:13:32;23.90;99.90
55036;DHT22;40936;53.008;6.556;2023-06-26T07:15:57;25.20;99.90
55036;DHT22;40936;53.008;6.556;2023-06-26T07:18:23;26.60;99.90
55036;DHT22;40936;53.008;6.556;2023-06-26T07:20:49;27.80;99.90
55036;DHT22;40936;53.008;6.556;2023-06-26T07:23:14;28.80;99.90
55036;DHT22;40936;53.008;6.556;2023-06-26T07:25:40;29.40;99.90
55036;DHT22;40936;53.008;6.556;2023-06-26T07:28:12;30.00;99.90
55036;DHT22;40936;53.008;6.556;2023-06-26T07:30:38;30.70;99.90
55036;DHT22;40936;53.008;6.556;2023-06-26T07:33:04;31.50;99.90
55036;DHT22;40936;53.008;6.556;2023-06-26T07:35:30;32.10;99.90
55036;DHT22;40936;53.008;6.556;2023-06-26T07:37:56;32.40;99.90
55036;DHT22;40936;53.008;6.556;2023-06-26T07:40:21;32.90;99.90
55036;DHT22;40936;53.008;6.556;2023-06-26T07:42:47;33.30;99.90
55036;DHT22;40936;53.008;6.556;2023-06-26T07:45:13;33.50;99.90
55036;DHT22;40936;53.008;6.556;2023-06-26T07:47:39;33.10;99.90
55036;DHT22;40936;53.008;6.556;2023-06-26T07:50:05;32.60;99.90
55036;DHT22;40936;53.008;6.556;2023-06-26T07:52:31;32.60;99.90
55036;DHT22;40936;53.008;6.556;2023-06-26T07:54:57;32.90;99.90
55036;DHT22;40936;53.008;6.556;2023-06-26T07:57:23;33.20;99.90
55036;DHT22;40936;53.008;6.556;2023-06-26T07:59:50;33.30;99.90
55036;DHT22;40936;53.008;6.556;2023-06-26T08:02:16;33.10;99.90
55036;DHT22;40936;53.008;6.556;2023-06-26T08:04:41;33.20;99.90
55036;DHT22;40936;53.008;6.556;2023-06-26T08:07:07;33.20;99.90
55036;DHT22;40936;53.008;6.556;2023-06-26T08:09:33;32.90;99.90
55036;DHT22;40936;53.008;6.556;2023-06-26T08:11:59;32.80;99.90
55036;DHT22;40936;53.008;6.556;2023-06-26T08:14:25;33.00;99.90
55036;DHT22;40936;53.008;6.556;2023-06-26T08:16:51;33.10;99.90
55036;DHT22;40936;53.008;6.556;2023-06-26T08:19:17;32.00;99.90
55036;DHT22;40936;53.008;6.556;2023-06-26T08:21:44;31.70;99.90
55036;DHT22;40936;53.008;6.556;2023-06-26T08:24:10;31.00;99.90
55036;DHT22;40936;53.008;6.556;2023-06-26T08:26:36;31.10;99.90
55036;DHT22;40936;53.008;6.556;2023-06-26T08:29:02;31.70;99.90
55036;DHT22;40936;53.008;6.556;2023-06-26T08:31:35;32.30;99.90
55036;DHT22;40936;53.008;6.556;2023-06-26T08:34:02;33.10;99.90
55036;DHT22;40936;53.008;6.556;2023-06-26T08:36:28;33.50;99.90
55036;DHT22;40936;53.008;6.556;2023-06-26T08:38:54;34.00;99.90
55036;DHT22;40936;53.008;6.556;2023-06-26T08:41:20;34.00;99.90
55036;DHT22;40936;53.008;6.556;2023-06-26T08:43:46;34.10;99.90
55036;DHT22;40936;53.008;6.556;2023-06-26T08:46:11;34.30;99.90
55036;DHT22;40936;53.008;6.556;2023-06-26T08:48:37;33.70;99.90
55036;DHT22;40936;53.008;6.556;2023-06-26T08:51:16;32.10;99.90
55036;DHT22;40936;53.008;6.556;2023-06-26T08:53:43;30.80;99.90
55036;DHT22;40936;53.008;6.556;2023-06-26T08:56:11;30.40;99.90
55036;DHT22;40936;53.008;6.556;2023-06-26T08:58:39;30.60;99.90
55036;DHT22;40936;53.008;6.556;2023-06-26T09:01:05;30.70;99.90
55036;DHT22;40936;53.008;6.556;2023-06-26T09:03:32;31.00;99.90
55036;DHT22;40936;53.008;6.556;2023-06-26T09:05:58;30.50;99.90
55036;DHT22;40936;53.008;6.556;2023-06-26T09:08:24;30.80;99.90
55036;DHT22;40936;53.008;6.556;2023-06-26T09:10:50;30.80;99.90
55036;DHT22;40936;53.008;6.556;2023-06-26T09:13:18;30.50;99.90
55036;DHT22;40936;53.008;6.556;2023-06-26T09:15:44;30.30;99.90
55036;DHT22;40936;53.008;6.556;2023-06-26T09:18:09;30.80;99.90
55036;DHT22;40936;53.008;6.556;2023-06-26T09:20:35;31.60;99.90
55036;DHT22;40936;53.008;6.556;2023-06-26T09:23:01;31.60;99.90
55036;DHT22;40936;53.008;6.556;2023-06-26T09:25:28;31.60;99.90
55036;DHT22;40936;53.008;6.556;2023-06-26T09:27:55;31.40;99.90
55036;DHT22;40936;53.008;6.556;2023-06-26T09:30:21;32.00;99.90
55036;DHT22;40936;53.008;6.556;2023-06-26T09:32:47;32.90;99.90
55036;DHT22;40936;53.008;6.556;2023-06-26T09:35:13;33.20;99.90
55036;DHT22;40936;53.008;6.556;2023-06-26T09:37:39;33.20;99.90
55036;DHT22;40936;53.008;6.556;2023-06-26T09:40:06;33.20;99.90
55036;DHT22;40936;53.008;6.556;2023-06-26T09:42:32;33.60;99.90
55036;DHT22;40936;53.008;6.556;2023-06-26T09:44:58;33.60;99.90
55036;DHT22;40936;53.008;6.556;2023-06-26T09:47:25;33.60;99.90
55036;DHT22;40936;53.008;6.556;2023-06-26T09:49:50;33.00;99.90
55036;DHT22;40936;53.008;6.556;2023-06-26T09:52:18;32.00;99.90
55036;DHT22;40936;53.008;6.556;2023-06-26T09:54:45;31.20;99.90
55036;DHT22;40936;53.008;6.556;2023-06-26T09:57:16;31.60;99.90
55036;DHT22;40936;53.008;6.556;2023-06-26T09:59:42;32.20;99.90
55036;DHT22;40936;53.008;6.556;2023-06-26T10:02:10;31.40;99.90
55036;DHT22;40936;53.008;6.556;2023-06-26T10:04:37;31.20;99.90
55036;DHT22;40936;53.008;6.556;2023-06-26T10:07:15;31.70;99.90
55036;DHT22;40936;53.008;6.556;2023-06-26T10:09:44;32.80;99.90
55036;DHT22;40936;53.008;6.556;2023-06-26T10:12:27;33.40;99.90
55036;DHT22;40936;53.008;6.556;2023-06-26T10:14:53;32.90;99.90
55036;DHT22;40936;53.008;6.556;2023-06-26T10:17:21;31.70;99.90
55036;DHT22;40936;53.008;6.556;2023-06-26T10:19:48;30.80;99.90
55036;DHT22;40936;53.008;6.556;2023-06-26T10:22:18;30.60;99.90
55036;DHT22;40936;53.008;6.556;2023-06-26T10:24:47;31.50;99.90
55036;DHT22;40936;53.008;6.556;2023-06-26T10:27:20;32.50;99.90
55036;DHT22;40936;53.008;6.556;2023-06-26T10:29:56;33.70;99.90
55036;DHT22;40936;53.008;6.556;2023-06-26T10:32:25;34.80;99.90
55036;DHT22;40936;53.008;6.556;2023-06-26T10:34:52;35.00;99.90
55036;DHT22;40936;53.008;6.556;2023-06-26T10:37:18;33.70;99.90
55036;DHT22;40936;53.008;6.556;2023-06-26T10:39:51;32.20;99.90
55036;DHT22;40936;53.008;6.556;2023-06-26T10:42:18;33.10;99.90
55036;DHT22;40936;53.008;6.556;2023-06-26T10:44:46;33.30;99.90
55036;DHT22;40936;53.008;6.556;2023-06-26T10:47:28;33.70;99.90
55036;DHT22;40936;53.008;6.556;2023-06-26T10:49:54;34.30;99.90
55036;DHT22;40936;53.008;6.556;2023-06-26T10:52:20;34.80;99.90
55036;DHT22;40936;53.008;6.556;2023-06-26T10:54:46;34.30;99.90
55036;DHT22;40936;53.008;6.556;2023-06-26T10:57:23;33.10;99.90
55036;DHT22;40936;53.008;6.556;2023-06-26T10:59:49;32.60;99.90
55036;DHT22;40936;53.008;6.556;2023-06-26T11:02:47;33.10;99.90
55036;DHT22;40936;53.008;6.556;2023-06-26T11:05:26;33.00;99.90
55036;DHT22;40936;53.008;6.556;2023-06-26T11:08:07;33.40;99.90
55036;DHT22;40936;53.008;6.556;2023-06-26T11:11:02;32.90;99.90
55036;DHT22;40936;53.008;6.556;2023-06-26T11:13:29;33.20;99.90
55036;DHT22;40936;53.008;6.556;2023-06-26T11:15:55;33.00;99.90
55036;DHT22;40936;53.008;6.556;2023-06-26T11:18:22;32.20;99.90
55036;DHT22;40936;53.008;6.556;2023-06-26T11:20:49;32.30;99.90
55036;DHT22;40936;53.008;6.556;2023-06-26T11:23:21;32.30;99.90
55036;DHT22;40936;53.008;6.556;2023-06-26T11:25:47;32.70;99.90
55036;DHT22;40936;53.008;6.556;2023-06-26T11:28:13;33.20;99.90
55036;DHT22;40936;53.008;6.556;2023-06-26T11:30:39;33.60;99.90
55036;DHT22;40936;53.008;6.556;2023-06-26T11:33:09;34.30;99.90
55036;DHT22;40936;53.008;6.556;2023-06-26T11:35:35;33.60;99.90
55036;DHT22;40936;53.008;6.556;2023-06-26T11:38:02;32.70;99.90
55036;DHT22;40936;53.008;6.556;2023-06-26T11:40:36;31.60;99.90
55036;DHT22;40936;53.008;6.556;2023-06-26T11:43:02;31.10;99.90
55036;DHT22;40936;53.008;6.556;2023-06-26T11:45:30;30.60;99.90
55036;DHT22;40936;53.008;6.556;2023-06-26T11:47:57;31.00;99.90
55036;DHT22;40936;53.008;6.556;2023-06-26T11:50:24;31.70;99.90
55036;DHT22;40936;53.008;6.556;2023-06-26T11:52:56;32.10;99.90
55036;DHT22;40936;53.008;6.556;2023-06-26T11:55:24;31.30;99.90
55036;DHT22;40936;53.008;6.556;2023-06-26T11:57:53;30.30;99.90
55036;DHT22;40936;53.008;6.556;2023-06-26T12:00:19;30.10;99.90
55036;DHT22;40936;53.008;6.556;2023-06-26T12:02:48;30.10;99.90
55036;DHT22;40936;53.008;6.556;2023-06-26T12:05:16;30.20;99.90
55036;DHT22;40936;53.008;6.556;2023-06-26T12:07:42;29.80;99.90
55036;DHT22;40936;53.008;6.556;2023-06-26T12:10:10;29.90;99.90
55036;DHT22;40936;53.008;6.556;2023-06-26T12:12:36;30.40;99.90
55036;DHT22;40936;53.008;6.556;2023-06-26T12:15:02;30.90;99.90
55036;DHT22;40936;53.008;6.556;2023-06-26T12:17:28;31.30;99.90
55036;DHT22;40936;53.008;6.556;2023-06-26T12:19:54;31.10;99.90
55036;DHT22;40936;53.008;6.556;2023-06-26T12:22:20;31.00;99.90
55036;DHT22;40936;53.008;6.556;2023-06-26T12:24:46;30.60;99.90
55036;DHT22;40936;53.008;6.556;2023-06-26T12:27:14;30.40;99.90
55036;DHT22;40936;53.008;6.556;2023-06-26T12:29:45;30.20;99.90
55036;DHT22;40936;53.008;6.556;2023-06-26T12:32:12;30.40;99.90
55036;DHT22;40936;53.008;6.556;2023-06-26T12:34:40;30.50;99.90
55036;DHT22;40936;53.008;6.556;2023-06-26T12:37:10;30.00;99.90
55036;DHT22;40936;53.008;6.556;2023-06-26T12:39:52;29.40;99.90
55036;DHT22;40936;53.008;6.556;2023-06-26T12:42:27;29.10;99.90
55036;DHT22;40936;53.008;6.556;2023-06-26T12:44:53;28.70;99.90
55036;DHT22;40936;53.008;6.556;2023-06-26T12:47:29;27.90;99.90
55036;DHT22;40936;53.008;6.556;2023-06-26T12:49:56;27.40;99.90
55036;DHT22;40936;53.008;6.556;2023-06-26T12:52:23;27.40;99.90
55036;DHT22;40936;53.008;6.556;2023-06-26T12:54:53;27.20;99.90
55036;DHT22;40936;53.008;6.556;2023-06-26T12:57:19;27.40;99.90
55036;DHT22;40936;53.008;6.556;2023-06-26T12:59:45;27.30;99.90
55036;DHT22;40936;53.008;6.556;2023-06-26T13:02:11;26.80;99.90
55036;DHT22;40936;53.008;6.556;2023-06-26T13:04:37;26.70;99.90
55036;DHT22;40936;53.008;6.556;2023-06-26T13:07:06;26.50;99.90
55036;DHT22;40936;53.008;6.556;2023-06-26T13:09:33;26.60;99.90
55036;DHT22;40936;53.008;6.556;2023-06-26T13:12:00;26.60;99.90
55036;DHT22;40936;53.008;6.556;2023-06-26T13:14:25;26.70;99.90
55036;DHT22;40936;53.008;6.556;2023-06-26T13:16:51;26.80;99.90
55036;DHT22;40936;53.008;6.556;2023-06-26T13:19:17;26.90;99.90
55036;DHT22;40936;53.008;6.556;2023-06-26T13:21:43;27.00;99.90
55036;DHT22;40936;53.008;6.556;2023-06-26T13:24:09;26.90;99.90
55036;DHT22;40936;53.008;6.556;2023-06-26T13:26:35;26.80;99.90
55036;DHT22;40936;53.008;6.556;2023-06-26T13:29:01;26.60;99.90
55036;DHT22;40936;53.008;6.556;2023-06-26T13:31:27;26.50;99.90
55036;DHT22;40936;53.008;6.556;2023-06-26T13:33:53;26.50;99.90
55036;DHT22;40936;53.008;6.556;2023-06-26T13:36:19;26.20;99.90
55036;DHT22;40936;53.008;6.556;2023-06-26T13:38:46;26.20;99.90
55036;DHT22;40936;53.008;6.556;2023-06-26T13:41:13;26.10;99.90
55036;DHT22;40936;53.008;6.556;2023-06-26T13:43:39;26.00;99.90
55036;DHT22;40936;53.008;6.556;2023-06-26T13:46:05;26.00;99.90
55036;DHT22;40936;53.008;6.556;2023-06-26T13:48:30;25.80;99.90
55036;DHT22;40936;53.008;6.556;2023-06-26T13:50:58;25.80;99.90
55036;DHT22;40936;53.008;6.556;2023-06-26T13:53:24;25.70;99.90
55036;DHT22;40936;53.008;6.556;2023-06-26T13:55:49;25.60;99.90
55036;DHT22;40936;53.008;6.556;2023-06-26T13:58:15;25.60;99.90
55036;DHT22;40936;53.008;6.556;2023-06-26T14:00:41;25.60;99.90
55036;DHT22;40936;53.008;6.556;2023-06-26T14:03:10;25.60;99.90
55036;DHT22;40936;53.008;6.556;2023-06-26T14:05:36;25.40;99.90
55036;DHT22;40936;53.008;6.556;2023-06-26T14:08:04;25.60;99.90
55036;DHT22;40936;53.008;6.556;2023-06-26T14:10:30;25.70;99.90
55036;DHT22;40936;53.008;6.556;2023-06-26T14:12:56;25.30;99.90
55036;DHT22;40936;53.008;6.556;2023-06-26T14:15:22;25.30;99.90
55036;DHT22;40936;53.008;6.556;2023-06-26T14:17:47;25.20;99.90
55036;DHT22;40936;53.008;6.556;2023-06-26T14:20:16;25.00;99.90
55036;DHT22;40936;53.008;6.556;2023-06-26T14:22:43;24.90;99.90
55036;DHT22;40936;53.008;6.556;2023-06-26T14:25:13;25.00;99.90
55036;DHT22;40936;53.008;6.556;2023-06-26T14:27:39;24.90;99.90
55036;DHT22;40936;53.008;6.556;2023-06-26T14:30:05;25.00;99.90
55036;DHT22;40936;53.008;6.556;2023-06-26T14:32:31;24.90;99.90
55036;DHT22;40936;53.008;6.556;2023-06-26T14:34:57;24.90;99.90
55036;DHT22;40936;53.008;6.556;2023-06-26T14:37:23;24.80;99.90
55036;DHT22;40936;53.008;6.556;2023-06-26T14:39:50;24.80;99.90
55036;DHT22;40936;53.008;6.556;2023-06-26T14:42:15;24.90;99.90
55036;DHT22;40936;53.008;6.556;2023-06-26T14:44:41;24.90;99.90
55036;DHT22;40936;53.008;6.556;2023-06-26T14:47:07;25.00;99.90
55036;DHT22;40936;53.008;6.556;2023-06-26T14:49:33;25.10;99.90
55036;DHT22;40936;53.008;6.556;2023-06-26T14:51:59;25.10;99.90
55036;DHT22;40936;53.008;6.556;2023-06-26T14:54:25;24.90;99.90
55036;DHT22;40936;53.008;6.556;2023-06-26T14:56:51;24.80;99.90
55036;DHT22;40936;53.008;6.556;2023-06-26T14:59:16;24.70;99.90
55036;DHT22;40936;53.008;6.556;2023-06-26T15:01:42;24.70;99.90
55036;DHT22;40936;53.008;6.556;2023-06-26T15:04:08;24.80;99.90
55036;DHT22;40936;53.008;6.556;2023-06-26T15:06:34;24.90;99.90
55036;DHT22;40936;53.008;6.556;2023-06-26T15:09:00;24.90;99.90
55036;DHT22;40936;53.008;6.556;2023-06-26T15:11:26;24.90;99.90
55036;DHT22;40936;53.008;6.556;2023-06-26T15:13:52;25.00;99.90
55036;DHT22;40936;53.008;6.556;2023-06-26T15:16:18;25.20;99.90
55036;DHT22;40936;53.008;6.556;2023-06-26T15:18:43;25.60;99.90
55036;DHT22;40936;53.008;6.556;2023-06-26T15:21:09;25.80;99.90
55036;DHT22;40936;53.008;6.556;2023-06-26T15:23:35;26.00;99.90
55036;DHT22;40936;53.008;6.556;2023-06-26T15:26:01;25.80;99.90
55036;DHT22;40936;53.008;6.556;2023-06-26T15:28:27;25.60;99.90
55036;DHT22;40936;53.008;6.556;2023-06-26T15:30:52;25.40;99.90
55036;DHT22;40936;53.008;6.556;2023-06-26T15:33:18;25.10;99.90
55036;DHT22;40936;53.008;6.556;2023-06-26T15:35:44;25.30;99.90
55036;DHT22;40936;53.008;6.556;2023-06-26T15:38:10;25.30;99.90